Time;durP1;ratioP1;P1;durP2;ratioP2;P2;SDS_P1;SDS_P2;PMS_P1;PMS_P2;Temp;Humidity;BMP_temperature;BMP_pressure;BME280_temperature;BME280_humidity;BME280_pressure;Samples;Min_cycle;Max_cycle;Signal;HPM_P1;HPM_P2
2023/08/13 00:00:33;;;;;;;3.10;2.63;;;;;;;;;;5069162;28;20228;-83
2023/08/13 00:03:00;;;;;;;3.88;2.90;;;;;;;;;;5069398;28;20725;-82
2023/08/13 00:05:27;;;;;;;4.55;3.08;;;;;;;;;;5060707;28;20722;-82
2023/08/13 00:07:54;;;;;;;5.40;2.85;;;;;;;;;;5062110;28;20228;-82
2023/08/13 00:10:22;;;;;;;5.65;2.63;;;;;;;;;;5070325;28;20581;-82
2023/08/13 00:12:49;;;;;;;5.15;2.92;;;;;;;;;;5064627;28;20226;-83
2023/08/13 00:15:16;;;;;;;3.00;2.60;;;;;;;;;;5065022;28;20205;-83
2023/08/13 00:17:44;;;;;;;4.47;2.80;;;;;;;;;;5067826;28;20274;-83
2023/08/13 00:20:12;;;;;;;3.58;2.72;;;;;;;;;;5068653;28;20675;-83
2023/08/13 00:22:39;;;;;;;4.60;2.85;;;;;;;;;;5064817;28;20234;-82
2023/08/13 00:25:07;;;;;;;3.13;2.60;;;;;;;;;;5064738;28;20197;-83
2023/08/13 00:27:34;;;;;;;2.33;2.17;;;;;;;;;;5065282;28;20686;-82
2023/08/13 00:30:01;;;;;;;3.15;2.60;;;;;;;;;;5062071;28;20202;-82
2023/08/13 00:32:28;;;;;;;6.15;2.80;;;;;;;;;;5065033;28;20237;-82
2023/08/13 00:34:57;;;;;;;4.47;2.70;;;;;;;;;;5063647;28;20198;-83
2023/08/13 00:37:24;;;;;;;2.60;2.40;;;;;;;;;;5065325;28;20286;-83
2023/08/13 00:39:51;;;;;;;3.33;3.03;;;;;;;;;;5064733;28;20202;-83
2023/08/13 00:42:18;;;;;;;3.28;2.90;;;;;;;;;;5065008;28;20233;-83
2023/08/13 00:44:45;;;;;;;2.60;2.40;;;;;;;;;;5064655;28;20308;-82
2023/08/13 00:47:12;;;;;;;3.13;2.83;;;;;;;;;;5062968;28;20239;-82
2023/08/13 00:49:39;;;;;;;4.43;2.50;;;;;;;;;;5065108;28;20709;-83
2023/08/13 00:52:08;;;;;;;3.22;2.92;;;;;;;;;;5062031;28;20239;-82
2023/08/13 00:54:36;;;;;;;2.92;2.60;;;;;;;;;;5067324;28;20671;-82
2023/08/13 00:59:45;;;;;;;2.95;2.72;;;;;;;;;;5099134;28;20256;-83
2023/08/13 01:02:13;;;;;;;3.15;2.85;;;;;;;;;;5074864;28;20239;-83
2023/08/13 01:04:40;;;;;;;7.70;3.25;;;;;;;;;;5071006;28;20221;-83
2023/08/13 01:07:13;;;;;;;3.33;2.72;;;;;;;;;;5063553;28;20225;-83
2023/08/13 01:09:43;;;;;;;3.05;2.83;;;;;;;;;;5075752;28;20638;-83
2023/08/13 01:12:13;;;;;;;3.30;2.83;;;;;;;;;;5075204;28;20232;-83
2023/08/13 01:14:42;;;;;;;2.72;2.53;;;;;;;;;;5075562;28;20209;-83
2023/08/13 01:17:11;;;;;;;3.55;3.00;;;;;;;;;;5075583;28;20229;-83
2023/08/13 01:19:38;;;;;;;3.70;2.90;;;;;;;;;;5075984;28;20213;-83
2023/08/13 01:22:05;;;;;;;4.43;3.10;;;;;;;;;;5075218;28;20233;-83
2023/08/13 01:24:34;;;;;;;7.63;2.90;;;;;;;;;;5075823;28;20235;-83
2023/08/13 01:27:06;;;;;;;6.50;2.67;;;;;;;;;;5075146;28;20235;-83
2023/08/13 01:29:36;;;;;;;3.20;2.88;;;;;;;;;;5075901;28;20216;-83
2023/08/13 01:32:04;;;;;;;6.35;3.13;;;;;;;;;;5075211;28;20241;-82
2023/08/13 01:37:35;;;;;;;3.45;3.03;;;;;;;;;;5073427;28;20721;-83
2023/08/13 01:40:04;;;;;;;3.70;3.05;;;;;;;;;;5075142;28;20220;-83
2023/08/13 01:42:33;;;;;;;4.20;2.85;;;;;;;;;;5072372;28;20311;-84
2023/08/13 01:45:00;;;;;;;3.47;3.00;;;;;;;;;;5074749;28;20210;-85
2023/08/13 01:47:27;;;;;;;2.97;2.78;;;;;;;;;;5070710;28;20839;-84
2023/08/13 01:49:54;;;;;;;4.68;3.15;;;;;;;;;;5074841;28;20683;-84
2023/08/13 01:52:21;;;;;;;2.80;2.60;;;;;;;;;;5074327;28;20225;-85
2023/08/13 01:54:48;;;;;;;3.53;2.78;;;;;;;;;;5075127;28;20246;-85
2023/08/13 01:57:17;;;;;;;3.92;3.50;;;;;;;;;;5074412;28;20236;-84
2023/08/13 01:59:44;;;;;;;4.10;2.97;;;;;;;;;;5075186;28;20232;-83
2023/08/13 02:02:11;;;;;;;4.10;2.78;;;;;;;;;;5073234;28;20730;-84
2023/08/13 02:04:38;;;;;;;4.15;3.50;;;;;;;;;;5073759;28;20217;-84
2023/08/13 02:07:05;;;;;;;4.95;3.80;;;;;;;;;;5073872;28;20780;-84
2023/08/13 02:09:32;;;;;;;4.70;3.30;;;;;;;;;;5075147;28;20209;-84
2023/08/13 02:11:59;;;;;;;4.20;3.28;;;;;;;;;;5074456;28;20599;-84
2023/08/13 02:14:28;;;;;;;3.40;3.10;;;;;;;;;;5074820;28;20202;-84
2023/08/13 02:16:55;;;;;;;3.55;3.15;;;;;;;;;;5074204;28;20665;-83
2023/08/13 02:19:22;;;;;;;4.32;3.13;;;;;;;;;;5074720;28;20212;-84
2023/08/13 02:21:49;;;;;;;3.70;3.40;;;;;;;;;;5074003;28;20703;-84
2023/08/13 02:24:16;;;;;;;3.80;2.83;;;;;;;;;;5074517;28;20233;-84
2023/08/13 02:26:43;;;;;;;4.47;2.78;;;;;;;;;;5074243;28;20229;-84
2023/08/13 02:29:10;;;;;;;3.30;3.00;;;;;;;;;;5074771;28;20216;-84
2023/08/13 02:31:38;;;;;;;3.05;2.75;;;;;;;;;;5074063;28;20733;-84
2023/08/13 02:34:06;;;;;;;7.85;2.85;;;;;;;;;;5074220;28;20225;-84
2023/08/13 02:36:33;;;;;;;5.63;3.30;;;;;;;;;;5074186;28;20283;-83
2023/08/13 02:39:00;;;;;;;4.90;3.30;;;;;;;;;;5074127;28;20201;-84
2023/08/13 02:41:27;;;;;;;4.32;2.80;;;;;;;;;;5073663;28;20606;-84
2023/08/13 02:43:55;;;;;;;3.55;3.05;;;;;;;;;;5073828;28;20236;-84
2023/08/13 02:46:22;;;;;;;3.47;2.97;;;;;;;;;;5073780;28;20229;-84
2023/08/13 02:48:53;;;;;;;3.00;2.70;;;;;;;;;;5078811;28;20243;-84
2023/08/13 02:51:20;;;;;;;4.78;3.00;;;;;;;;;;5057168;28;20221;-84
2023/08/13 02:53:48;;;;;;;3.28;2.97;;;;;;;;;;5073681;28;20225;-84
2023/08/13 02:56:15;;;;;;;3.45;3.10;;;;;;;;;;5073294;28;20306;-83
2023/08/13 02:58:42;;;;;;;6.20;2.95;;;;;;;;;;5074376;28;20212;-84
2023/08/13 03:01:09;;;;;;;5.43;3.47;;;;;;;;;;5072532;28;20201;-83
2023/08/13 03:03:36;;;;;;;4.15;3.30;;;;;;;;;;5072695;28;20229;-83
2023/08/13 03:06:04;;;;;;;3.25;2.95;;;;;;;;;;5072805;28;20213;-84
2023/08/13 03:08:32;;;;;;;4.05;2.75;;;;;;;;;;5074140;28;20209;-84
2023/08/13 03:10:59;;;;;;;4.80;2.72;;;;;;;;;;5073702;28;20209;-84
2023/08/13 03:13:26;;;;;;;3.65;2.90;;;;;;;;;;5073925;28;20229;-84
2023/08/13 03:15:53;;;;;;;3.30;2.95;;;;;;;;;;5073289;28;20212;-85
2023/08/13 03:18:20;;;;;;;3.47;3.08;;;;;;;;;;5073770;28;20209;-84
2023/08/13 03:20:47;;;;;;;3.58;2.90;;;;;;;;;;5073419;28;20659;-84
2023/08/13 03:23:15;;;;;;;6.88;3.10;;;;;;;;;;5072983;28;20236;-84
2023/08/13 03:25:42;;;;;;;4.97;3.00;;;;;;;;;;5073418;28;20205;-83
2023/08/13 03:28:09;;;;;;;3.60;2.90;;;;;;;;;;5072965;28;20236;-84
2023/08/13 03:30:36;;;;;;;3.15;2.85;;;;;;;;;;5073759;28;20622;-84
2023/08/13 03:33:03;;;;;;;4.03;3.25;;;;;;;;;;5072975;28;20336;-84
2023/08/13 03:35:30;;;;;;;3.38;3.00;;;;;;;;;;5072967;28;20197;-84
2023/08/13 03:37:57;;;;;;;3.40;3.10;;;;;;;;;;5073018;28;20237;-84
2023/08/13 03:40:26;;;;;;;4.57;2.88;;;;;;;;;;5073279;28;21081;-84
2023/08/13 03:42:53;;;;;;;3.50;3.20;;;;;;;;;;5072765;28;20610;-84
2023/08/13 03:45:20;;;;;;;2.85;2.60;;;;;;;;;;5073165;28;20882;-84
2023/08/13 03:47:47;;;;;;;3.42;2.90;;;;;;;;;;5069206;28;20248;-84
2023/08/13 03:50:14;;;;;;;5.50;2.85;;;;;;;;;;5073250;28;20204;-84
2023/08/13 03:52:41;;;;;;;5.45;3.10;;;;;;;;;;5072701;28;20233;-83
2023/08/13 03:55:08;;;;;;;2.97;2.78;;;;;;;;;;5073270;28;20209;-84
2023/08/13 03:57:37;;;;;;;2.95;2.70;;;;;;;;;;5072854;28;20232;-84
2023/08/13 04:00:05;;;;;;;5.22;3.20;;;;;;;;;;5072365;28;20217;-85
2023/08/13 04:02:33;;;;;;;3.90;2.90;;;;;;;;;;5071446;28;20711;-83
2023/08/13 04:05:01;;;;;;;3.63;3.00;;;;;;;;;;5072528;28;20229;-84
2023/08/13 04:07:28;;;;;;;3.17;2.97;;;;;;;;;;5072456;28;20237;-84
2023/08/13 04:09:55;;;;;;;3.38;2.92;;;;;;;;;;5073155;28;20217;-84
2023/08/13 04:12:22;;;;;;;5.47;2.85;;;;;;;;;;5072837;28;20307;-84
2023/08/13 04:14:50;;;;;;;3.88;2.80;;;;;;;;;;5073155;28;20205;-84
2023/08/13 04:17:17;;;;;;;3.15;2.85;;;;;;;;;;5072901;28;20233;-84
2023/08/13 04:19:44;;;;;;;3.78;2.88;;;;;;;;;;5072986;28;20208;-84
2023/08/13 04:22:11;;;;;;;3.28;2.90;;;;;;;;;;5072586;28;20237;-84
2023/08/13 04:24:38;;;;;;;7.38;3.40;;;;;;;;;;5072771;28;20715;-84
2023/08/13 04:27:05;;;;;;;3.80;3.40;;;;;;;;;;5072391;28;20233;-84
2023/08/13 04:29:33;;;;;;;3.58;3.20;;;;;;;;;;5073055;28;20193;-84
2023/08/13 04:32:01;;;;;;;5.68;3.30;;;;;;;;;;5074269;28;20607;-84
2023/08/13 04:34:28;;;;;;;3.22;2.92;;;;;;;;;;5076339;28;20200;-83
2023/08/13 04:36:55;;;;;;;3.30;3.00;;;;;;;;;;5076202;28;20229;-84
2023/08/13 04:39:22;;;;;;;4.72;3.30;;;;;;;;;;5076435;28;20201;-84
2023/08/13 04:41:49;;;;;;;8.00;3.20;;;;;;;;;;5075835;28;20241;-84
2023/08/13 04:44:16;;;;;;;5.20;3.00;;;;;;;;;;5076455;28;20237;-84
2023/08/13 04:46:43;;;;;;;3.35;3.05;;;;;;;;;;5076126;28;20229;-83
2023/08/13 04:49:12;;;;;;;4.07;3.58;;;;;;;;;;5076457;28;20235;-84
2023/08/13 04:51:39;;;;;;;3.50;3.20;;;;;;;;;;5075700;28;20229;-84
2023/08/13 04:54:06;;;;;;;3.58;3.17;;;;;;;;;;5072262;28;20221;-85
2023/08/13 04:56:33;;;;;;;5.03;3.47;;;;;;;;;;5075810;28;20228;-83
2023/08/13 04:59:00;;;;;;;3.20;2.90;;;;;;;;;;5075749;28;20205;-83
2023/08/13 05:01:27;;;;;;;5.18;2.90;;;;;;;;;;5074427;28;20236;-84
2023/08/13 05:03:54;;;;;;;6.75;2.70;;;;;;;;;;5075732;28;20245;-89
2023/08/13 05:06:22;;;;;;;3.00;2.70;;;;;;;;;;5077055;28;20224;-90
2023/08/13 05:08:50;;;;;;;2.95;2.65;;;;;;;;;;5077899;28;20202;-90
2023/08/13 05:11:17;;;;;;;4.93;2.80;;;;;;;;;;5083860;28;20217;-90
2023/08/13 05:13:44;;;;;;;3.85;2.75;;;;;;;;;;5078476;28;20221;-90
2023/08/13 05:16:11;;;;;;;3.13;2.38;;;;;;;;;;5077827;28;20244;-90
2023/08/13 05:18:38;;;;;;;3.03;2.50;;;;;;;;;;5078031;28;20198;-90
2023/08/13 05:21:05;;;;;;;7.53;2.85;;;;;;;;;;5077177;28;20206;-90
2023/08/13 05:23:34;;;;;;;3.97;2.75;;;;;;;;;;5077478;28;20325;-90
2023/08/13 05:26:01;;;;;;;3.53;2.78;;;;;;;;;;5076574;28;20233;-90
2023/08/13 05:28:28;;;;;;;2.97;2.60;;;;;;;;;;5077583;28;20217;-90
2023/08/13 05:30:55;;;;;;;4.60;2.75;;;;;;;;;;5077097;28;20205;-90
2023/08/13 05:33:22;;;;;;;4.15;2.78;;;;;;;;;;5073388;28;20721;-90
2023/08/13 05:35:49;;;;;;;3.13;2.92;;;;;;;;;;5076567;28;20205;-90
2023/08/13 05:38:16;;;;;;;4.90;2.95;;;;;;;;;;5076534;28;20214;-89
2023/08/13 05:40:45;;;;;;;3.35;2.78;;;;;;;;;;5076775;28;20605;-90
2023/08/13 05:43:12;;;;;;;6.68;3.40;;;;;;;;;;5075917;28;20236;-89
2023/08/13 05:45:39;;;;;;;3.60;3.17;;;;;;;;;;5076608;28;20236;-90
2023/08/13 05:48:06;;;;;;;5.00;3.00;;;;;;;;;;5076220;28;20232;-89
2023/08/13 05:50:33;;;;;;;5.80;2.88;;;;;;;;;;5076446;28;20201;-90
2023/08/13 05:53:00;;;;;;;3.78;3.03;;;;;;;;;;5076018;28;20223;-89
2023/08/13 05:55:27;;;;;;;4.30;2.92;;;;;;;;;;5076387;28;20218;-90
2023/08/13 05:57:56;;;;;;;3.97;3.20;;;;;;;;;;5070857;28;20229;-89
2023/08/13 06:00:23;;;;;;;3.58;3.10;;;;;;;;;;5071058;28;20210;-90
2023/08/13 06:02:50;;;;;;;7.28;3.72;;;;;;;;;;5054535;28;20245;-91
2023/08/13 06:05:17;;;;;;;3.33;3.03;;;;;;;;;;5057311;28;20236;-92
2023/08/13 06:07:44;;;;;;;4.18;3.00;;;;;;;;;;5060041;28;20234;-92
2023/08/13 06:10:11;;;;;;;3.50;3.20;;;;;;;;;;5077379;28;20206;-92
2023/08/13 06:12:38;;;;;;;3.95;3.53;;;;;;;;;;5076662;28;20221;-91
2023/08/13 06:15:09;;;;;;;3.38;3.05;;;;;;;;;;5077166;28;20205;-92
2023/08/13 06:17:37;;;;;;;4.10;3.08;;;;;;;;;;5076865;28;20277;-92
2023/08/13 06:20:04;;;;;;;3.70;3.35;;;;;;;;;;5076992;28;20209;-92
2023/08/13 06:22:31;;;;;;;3.55;3.22;;;;;;;;;;5076534;28;20237;-92
2023/08/13 06:24:58;;;;;;;4.63;2.83;;;;;;;;;;5076618;28;20225;-91
2023/08/13 06:27:25;;;;;;;3.25;2.95;;;;;;;;;;5076327;28;20240;-92
2023/08/13 06:29:54;;;;;;;3.80;3.40;;;;;;;;;;5077369;28;20209;-92
2023/08/13 06:32:22;;;;;;;5.18;2.90;;;;;;;;;;5075481;28;20229;-92
2023/08/13 06:34:49;;;;;;;4.88;2.85;;;;;;;;;;5077475;28;20846;-93
2023/08/13 06:37:16;;;;;;;3.33;3.00;;;;;;;;;;5076552;28;20229;-93
2023/08/13 06:39:44;;;;;;;3.20;2.90;;;;;;;;;;5077397;28;20205;-93
2023/08/13 06:42:11;;;;;;;4.90;3.38;;;;;;;;;;5077291;28;20246;-92
2023/08/13 06:44:38;;;;;;;5.78;3.33;;;;;;;;;;5077250;28;20225;-92
2023/08/13 06:47:05;;;;;;;3.63;3.10;;;;;;;;;;5076342;28;20237;-91
2023/08/13 06:49:33;;;;;;;9.50;3.75;;;;;;;;;;5077045;28;20190;-93
2023/08/13 06:52:00;;;;;;;4.93;3.70;;;;;;;;;;5077223;28;20225;-92
2023/08/13 06:54:28;;;;;;;3.88;3.47;;;;;;;;;;5076857;28;20196;-92
2023/08/13 06:56:55;;;;;;;4.88;3.45;;;;;;;;;;5075528;28;20255;-90
2023/08/13 06:59:22;;;;;;;6.05;3.88;;;;;;;;;;5074933;28;20213;-92
2023/08/13 07:01:49;;;;;;;4.45;3.70;;;;;;;;;;5071501;28;20229;-91
2023/08/13 07:04:16;;;;;;;3.80;3.50;;;;;;;;;;5075453;28;20229;-91
2023/08/13 07:06:44;;;;;;;5.80;4.18;;;;;;;;;;5076597;28;20228;-92
2023/08/13 07:09:12;;;;;;;4.78;4.10;;;;;;;;;;5070595;28;20198;-92
2023/08/13 07:11:40;;;;;;;4.38;3.50;;;;;;;;;;5056245;28;20333;-92
2023/08/13 07:14:07;;;;;;;7.03;4.13;;;;;;;;;;5055673;28;20704;-90
2023/08/13 07:16:35;;;;;;;4.38;3.65;;;;;;;;;;5055807;28;20289;-92
2023/08/13 07:19:03;;;;;;;4.60;3.90;;;;;;;;;;5057480;28;20198;-92
2023/08/13 07:21:30;;;;;;;3.72;3.42;;;;;;;;;;5056911;28;20240;-92
2023/08/13 07:23:58;;;;;;;4.30;3.90;;;;;;;;;;5055719;28;20222;-91
2023/08/13 07:26:25;;;;;;;4.90;4.32;;;;;;;;;;5055183;28;20687;-92
2023/08/13 07:28:52;;;;;;;3.58;3.28;;;;;;;;;;5063234;28;20592;-90
2023/08/13 07:31:20;;;;;;;4.80;4.07;;;;;;;;;;5075211;28;20232;-91
2023/08/13 07:33:47;;;;;;;4.43;3.75;;;;;;;;;;5070510;28;20270;-91
2023/08/13 07:36:14;;;;;;;4.80;3.83;;;;;;;;;;5075750;28;20221;-91
2023/08/13 07:38:42;;;;;;;5.22;4.28;;;;;;;;;;5075356;28;20217;-86
2023/08/13 07:41:10;;;;;;;4.35;3.95;;;;;;;;;;5073863;28;20284;-91
2023/08/13 07:43:37;;;;;;;4.22;3.80;;;;;;;;;;5075050;28;20233;-86
2023/08/13 07:46:04;;;;;;;4.57;3.80;;;;;;;;;;5067987;28;20206;-85
2023/08/13 07:48:31;;;;;;;5.65;3.65;;;;;;;;;;5061314;28;20198;-85
2023/08/13 07:50:58;;;;;;;6.57;4.40;;;;;;;;;;5053675;28;20197;-85
2023/08/13 07:53:25;;;;;;;4.15;3.75;;;;;;;;;;5054336;28;20210;-85
2023/08/13 07:55:52;;;;;;;4.05;3.47;;;;;;;;;;5053773;28;20228;-84
2023/08/13 07:58:21;;;;;;;4.10;3.70;;;;;;;;;;5053167;28;20213;-85
2023/08/13 08:00:48;;;;;;;4.57;3.40;;;;;;;;;;5067835;28;20221;-85
2023/08/13 08:03:15;;;;;;;2.92;2.63;;;;;;;;;;5073326;28;20217;-85
2023/08/13 08:05:42;;;;;;;2.40;2.20;;;;;;;;;;5077006;28;20236;-85
2023/08/13 08:08:09;;;;;;;4.05;2.55;;;;;;;;;;5078485;28;20244;-85
2023/08/13 08:10:36;;;;;;;3.70;2.33;;;;;;;;;;5079930;28;20197;-85
2023/08/13 08:13:03;;;;;;;2.72;2.00;;;;;;;;;;5078097;28;20267;-87
2023/08/13 08:15:33;;;;;;;2.45;2.25;;;;;;;;;;5073199;28;20678;-86
2023/08/13 08:18:00;;;;;;;2.60;2.40;;;;;;;;;;5077205;28;20237;-86
2023/08/13 08:20:27;;;;;;;3.53;2.13;;;;;;;;;;5078320;28;20201;-87
2023/08/13 08:22:54;;;;;;;4.25;2.00;;;;;;;;;;5077612;28;20235;-86
2023/08/13 08:25:21;;;;;;;5.32;1.90;;;;;;;;;;5077740;28;20622;-87
2023/08/13 08:27:48;;;;;;;3.67;2.30;;;;;;;;;;5080448;28;20604;-86
2023/08/13 08:30:15;;;;;;;3.42;1.63;;;;;;;;;;5078493;28;20565;-87
2023/08/13 08:32:43;;;;;;;2.20;1.70;;;;;;;;;;5077853;28;20237;-87
2023/08/13 08:35:11;;;;;;;3.05;1.83;;;;;;;;;;5077641;28;20681;-86
2023/08/13 08:37:38;;;;;;;1.70;1.60;;;;;;;;;;5077191;28;20236;-86
2023/08/13 08:40:05;;;;;;;2.20;1.63;;;;;;;;;;5077752;28;20229;-86
2023/08/13 08:42:32;;;;;;;1.35;1.30;;;;;;;;;;5076816;28;20237;-86
2023/08/13 08:45:00;;;;;;;1.77;1.52;;;;;;;;;;5077982;28;20205;-88
2023/08/13 08:47:27;;;;;;;1.73;1.60;;;;;;;;;;5062178;28;20230;-87
2023/08/13 08:49:56;;;;;;;2.92;1.70;;;;;;;;;;5057984;28;20217;-89
2023/08/13 08:52:23;;;;;;;2.20;1.40;;;;;;;;;;5056693;28;20285;-86
2023/08/13 08:54:50;;;;;;;2.67;1.60;;;;;;;;;;5057401;28;20213;-88
2023/08/13 08:57:17;;;;;;;2.28;2.08;;;;;;;;;;5062492;28;20233;-86
2023/08/13 08:59:45;;;;;;;3.15;1.58;;;;;;;;;;5075775;28;20212;-87
2023/08/13 09:02:14;;;;;;;2.38;1.63;;;;;;;;;;5071453;28;20590;-87
2023/08/13 09:04:41;;;;;;;2.25;1.38;;;;;;;;;;5076675;28;20206;-87
2023/08/13 09:07:09;;;;;;;1.60;1.30;;;;;;;;;;5076535;28;20707;-88
2023/08/13 09:09:37;;;;;;;2.70;1.38;;;;;;;;;;5077615;28;20212;-88
2023/08/13 09:12:04;;;;;;;3.42;1.70;;;;;;;;;;5076604;28;20286;-87
2023/08/13 09:14:31;;;;;;;2.47;1.65;;;;;;;;;;5077013;28;20205;-88
2023/08/13 09:16:59;;;;;;;1.65;1.35;;;;;;;;;;5063561;28;20232;-88
2023/08/13 09:19:27;;;;;;;2.92;1.60;;;;;;;;;;5066336;28;20194;-88
2023/08/13 09:21:55;;;;;;;4.28;1.55;;;;;;;;;;5069520;28;20229;-85
2023/08/13 09:24:32;;;;;;;5.85;1.98;;;;;;;;;;5056701;28;20209;-86
2023/08/13 09:26:59;;;;;;;1.73;1.63;;;;;;;;;;5055650;28;20233;-87
2023/08/13 09:29:28;;;;;;;1.67;1.58;;;;;;;;;;5056562;28;20206;-86
2023/08/13 09:31:55;;;;;;;2.40;1.38;;;;;;;;;;5055617;28;20316;-85
2023/08/13 09:34:22;;;;;;;1.95;1.38;;;;;;;;;;5056102;28;20210;-86
2023/08/13 09:36:49;;;;;;;2.60;1.45;;;;;;;;;;5055652;28;20309;-85
2023/08/13 09:39:17;;;;;;;2.60;1.67;;;;;;;;;;5056246;28;20310;-86
2023/08/13 09:41:47;;;;;;;2.92;1.50;;;;;;;;;;5055691;28;20284;-87
2023/08/13 09:44:16;;;;;;;2.22;1.30;;;;;;;;;;5055799;28;20305;-86
2023/08/13 09:46:45;;;;;;;2.97;1.38;;;;;;;;;;5069766;28;20239;-86
2023/08/13 09:49:13;;;;;;;2.90;1.60;;;;;;;;;;5076010;28;20225;-86
2023/08/13 09:51:41;;;;;;;1.40;1.30;;;;;;;;;;5075283;28;20225;-86
2023/08/13 09:54:13;;;;;;;3.55;1.40;;;;;;;;;;5076038;28;20252;-90
2023/08/13 09:56:42;;;;;;;3.45;1.60;;;;;;;;;;5076224;28;20229;-88
2023/08/13 09:59:12;;;;;;;2.75;1.40;;;;;;;;;;5069177;28;20194;-88
2023/08/13 10:01:39;;;;;;;2.25;1.35;;;;;;;;;;5075326;28;20205;-88
2023/08/13 10:04:07;;;;;;;2.83;1.60;;;;;;;;;;5082231;28;20241;-88
2023/08/13 10:06:35;;;;;;;5.82;1.58;;;;;;;;;;5075259;28;20248;-88
2023/08/13 10:09:02;;;;;;;4.70;1.40;;;;;;;;;;5074292;28;20197;-88
2023/08/13 10:11:29;;;;;;;2.92;1.77;;;;;;;;;;5073387;28;20320;-88
2023/08/13 10:13:56;;;;;;;4.93;1.63;;;;;;;;;;5072736;28;20217;-89
2023/08/13 10:16:27;;;;;;;1.70;1.58;;;;;;;;;;5074059;28;20220;-88
2023/08/13 10:18:57;;;;;;;2.53;1.42;;;;;;;;;;5075010;28;20185;-87
2023/08/13 10:21:33;;;;;;;3.75;1.27;;;;;;;;;;5061783;28;20234;-88
2023/08/13 10:24:01;;;;;;;1.67;1.55;;;;;;;;;;5058962;28;20591;-88
2023/08/13 10:26:29;;;;;;;2.50;1.42;;;;;;;;;;5074369;28;20282;-87
2023/08/13 10:28:56;;;;;;;1.35;1.25;;;;;;;;;;5074430;28;20197;-88
2023/08/13 10:31:30;;;;;;;1.73;1.45;;;;;;;;;;5065247;28;20233;-87
2023/08/13 10:34:19;;;;;;;3.08;1.60;;;;;;;;;;5062006;28;20220;-88
2023/08/13 10:36:55;;;;;;;3.22;2.10;;;;;;;;;;5069515;28;20221;-88
2023/08/13 10:39:36;;;;;;;2.80;1.80;;;;;;;;;;5074565;28;20204;-88
2023/08/13 10:42:04;;;;;;;2.13;1.63;;;;;;;;;;5073886;28;20614;-89
2023/08/13 10:44:32;;;;;;;2.70;1.52;;;;;;;;;;5075226;28;20574;-88
2023/08/13 10:47:00;;;;;;;2.33;1.40;;;;;;;;;;5074298;28;20233;-89
2023/08/13 10:49:28;;;;;;;4.10;1.70;;;;;;;;;;5075201;28;20197;-90
2023/08/13 10:51:55;;;;;;;2.80;2.25;;;;;;;;;;5071003;28;20235;-90
2023/08/13 10:54:25;;;;;;;2.95;1.95;;;;;;;;;;5074508;28;20615;-89
2023/08/13 10:56:57;;;;;;;2.22;1.52;;;;;;;;;;5074494;28;20632;-90
2023/08/13 10:59:29;;;;;;;3.58;2.33;;;;;;;;;;5077182;28;20674;-90
2023/08/13 11:02:11;;;;;;;2.67;1.50;;;;;;;;;;5073893;28;20259;-91
2023/08/13 11:04:39;;;;;;;3.97;1.80;;;;;;;;;;5074941;28;20212;-88
2023/08/13 11:07:07;;;;;;;2.55;1.52;;;;;;;;;;5074279;28;20240;-88
2023/08/13 11:09:34;;;;;;;2.70;1.67;;;;;;;;;;5075102;28;20205;-88
2023/08/13 11:12:01;;;;;;;2.55;1.50;;;;;;;;;;5074038;28;20233;-88
2023/08/13 11:14:29;;;;;;;2.30;1.60;;;;;;;;;;5075008;28;20204;-88
2023/08/13 11:16:57;;;;;;;3.03;1.70;;;;;;;;;;5074114;28;20229;-87
2023/08/13 11:19:24;;;;;;;3.92;1.85;;;;;;;;;;5074773;28;20209;-87
2023/08/13 11:21:54;;;;;;;2.30;1.80;;;;;;;;;;5074454;28;20225;-88
2023/08/13 11:24:21;;;;;;;2.90;1.70;;;;;;;;;;5074594;28;20225;-88
2023/08/13 11:26:49;;;;;;;2.40;1.80;;;;;;;;;;5074352;28;20680;-89
2023/08/13 11:29:19;;;;;;;1.98;1.55;;;;;;;;;;5074527;28;20255;-88
2023/08/13 11:31:46;;;;;;;2.72;1.30;;;;;;;;;;5074238;28;20595;-88
2023/08/13 11:34:13;;;;;;;3.13;1.88;;;;;;;;;;5074905;28;20229;-90
2023/08/13 11:36:40;;;;;;;2.28;1.40;;;;;;;;;;5074388;28;20225;-89
2023/08/13 11:39:09;;;;;;;2.67;1.80;;;;;;;;;;5074338;28;20694;-88
2023/08/13 11:41:37;;;;;;;3.00;1.50;;;;;;;;;;5077502;28;20213;-89
2023/08/13 11:44:04;;;;;;;2.25;2.05;;;;;;;;;;5078418;28;20281;-88
2023/08/13 11:46:46;;;;;;;1.80;1.33;;;;;;;;;;5078232;28;20228;-88
2023/08/13 11:49:16;;;;;;;2.53;1.40;;;;;;;;;;5077383;28;20214;-88
2023/08/13 11:51:43;;;;;;;1.50;1.40;;;;;;;;;;5078068;28;20236;-88
2023/08/13 11:54:12;;;;;;;2.67;2.22;;;;;;;;;;5078401;28;20351;-88
2023/08/13 11:56:39;;;;;;;2.55;2.15;;;;;;;;;;5076818;28;20233;-88
2023/08/13 11:59:06;;;;;;;2.03;1.70;;;;;;;;;;5077064;28;20467;-88
2023/08/13 12:01:34;;;;;;;2.13;1.92;;;;;;;;;;5076460;28;20233;-88
2023/08/13 12:04:04;;;;;;;5.95;1.75;;;;;;;;;;5077504;28;20233;-88
2023/08/13 12:06:31;;;;;;;1.90;1.70;;;;;;;;;;5077384;28;20253;-88
2023/08/13 12:09:00;;;;;;;6.47;3.83;;;;;;;;;;5078187;28;20209;-88
2023/08/13 12:11:28;;;;;;;2.33;1.60;;;;;;;;;;5077537;28;20233;-88
2023/08/13 12:13:55;;;;;;;2.50;1.30;;;;;;;;;;5077834;28;20217;-88
2023/08/13 12:16:23;;;;;;;9.18;4.30;;;;;;;;;;5077152;28;20225;-88
2023/08/13 12:18:50;;;;;;;2.35;1.40;;;;;;;;;;5077606;28;20209;-88
2023/08/13 12:21:17;;;;;;;4.13;2.72;;;;;;;;;;5076989;28;20240;-89
2023/08/13 12:23:44;;;;;;;2.45;1.55;;;;;;;;;;5077793;28;20232;-88
2023/08/13 12:26:11;;;;;;;2.25;1.63;;;;;;;;;;5076794;28;20291;-88
2023/08/13 12:28:39;;;;;;;3.03;1.65;;;;;;;;;;5077956;28;20684;-88
2023/08/13 12:31:06;;;;;;;2.85;1.70;;;;;;;;;;5076642;28;20667;-89
2023/08/13 12:33:33;;;;;;;2.00;1.55;;;;;;;;;;5077328;28;20698;-89
2023/08/13 12:36:01;;;;;;;2.28;1.55;;;;;;;;;;5076713;28;20205;-89
2023/08/13 12:38:28;;;;;;;1.80;1.30;;;;;;;;;;5077319;28;20209;-88
2023/08/13 12:40:55;;;;;;;2.15;1.65;;;;;;;;;;5076716;28;20209;-88
2023/08/13 12:43:22;;;;;;;2.03;1.48;;;;;;;;;;5077005;28;20252;-88
2023/08/13 12:45:50;;;;;;;2.72;2.22;;;;;;;;;;5077357;28;20205;-88
2023/08/13 12:48:17;;;;;;;2.30;1.45;;;;;;;;;;5076802;28;20745;-88
2023/08/13 12:50:44;;;;;;;2.22;1.50;;;;;;;;;;5077354;28;20205;-88
2023/08/13 12:53:11;;;;;;;2.03;1.42;;;;;;;;;;5075388;28;20247;-89
2023/08/13 12:55:38;;;;;;;4.45;1.70;;;;;;;;;;5076894;28;20701;-87
2023/08/13 12:58:06;;;;;;;2.13;1.40;;;;;;;;;;5081720;28;20661;-88
2023/08/13 13:00:33;;;;;;;2.40;1.90;;;;;;;;;;5096584;28;20209;-88
2023/08/13 13:03:01;;;;;;;2.08;1.48;;;;;;;;;;5095796;28;20243;-87
2023/08/13 13:05:29;;;;;;;1.83;1.30;;;;;;;;;;5096568;28;20231;-88
2023/08/13 13:07:56;;;;;;;3.67;1.42;;;;;;;;;;5096412;28;20232;-88
2023/08/13 13:10:24;;;;;;;2.65;1.55;;;;;;;;;;5097633;28;20212;-88
2023/08/13 13:12:51;;;;;;;2.35;1.50;;;;;;;;;;5096377;28;20232;-88
2023/08/13 13:15:18;;;;;;;1.73;1.35;;;;;;;;;;5101530;28;20625;-88
2023/08/13 13:17:45;;;;;;;3.00;1.83;;;;;;;;;;5100642;28;20232;-89
2023/08/13 13:20:14;;;;;;;3.10;1.40;;;;;;;;;;5099178;28;20211;-88
2023/08/13 13:22:42;;;;;;;2.70;1.60;;;;;;;;;;5096997;28;20240;-89
2023/08/13 13:25:11;;;;;;;3.45;1.50;;;;;;;;;;5096593;28;20208;-89
2023/08/13 13:27:38;;;;;;;3.75;1.65;;;;;;;;;;5096107;28;20281;-88
2023/08/13 13:30:06;;;;;;;1.83;1.42;;;;;;;;;;5096413;28;20689;-89
2023/08/13 13:32:33;;;;;;;2.53;1.52;;;;;;;;;;5096054;28;20297;-87
2023/08/13 13:35:01;;;;;;;2.60;1.48;;;;;;;;;;5096633;28;20208;-88
2023/08/13 13:37:29;;;;;;;4.63;1.48;;;;;;;;;;5096363;28;20546;-89
2023/08/13 13:39:56;;;;;;;1.52;1.10;;;;;;;;;;5096991;28;20204;-88
2023/08/13 13:42:23;;;;;;;1.55;1.33;;;;;;;;;;5096193;28;20229;-88
2023/08/13 13:44:50;;;;;;;1.60;1.50;;;;;;;;;;5096649;28;20212;-88
2023/08/13 13:47:18;;;;;;;2.55;1.20;;;;;;;;;;5095819;28;20244;-88
2023/08/13 13:49:45;;;;;;;1.23;1.15;;;;;;;;;;5096368;28;20533;-89
2023/08/13 13:52:12;;;;;;;3.28;1.63;;;;;;;;;;5095836;28;20238;-88
2023/08/13 13:54:40;;;;;;;0.88;0.85;;;;;;;;;;5096032;28;20192;-89
2023/08/13 13:57:07;;;;;;;1.88;1.40;;;;;;;;;;5095266;28;20229;-86
2023/08/13 13:59:34;;;;;;;1.42;1.23;;;;;;;;;;5095329;28;20301;-88
2023/08/13 14:02:01;;;;;;;2.97;1.27;;;;;;;;;;5094626;28;20232;-91
2023/08/13 14:04:28;;;;;;;2.72;1.60;;;;;;;;;;5095148;28;20200;-90
2023/08/13 14:06:56;;;;;;;2.65;1.70;;;;;;;;;;5095263;28;20243;-90
2023/08/13 14:09:23;;;;;;;3.60;1.27;;;;;;;;;;5097064;28;20205;-91
2023/08/13 14:11:51;;;;;;;1.90;1.60;;;;;;;;;;5096318;28;20235;-88
2023/08/13 14:14:18;;;;;;;2.70;1.60;;;;;;;;;;5095585;28;20632;-89
2023/08/13 14:16:45;;;;;;;1.20;1.10;;;;;;;;;;5095487;28;20228;-89
2023/08/13 14:19:12;;;;;;;1.42;1.35;;;;;;;;;;5096035;28;20212;-88
2023/08/13 14:21:39;;;;;;;3.83;1.50;;;;;;;;;;5095125;28;20232;-88
2023/08/13 14:24:07;;;;;;;1.95;1.17;;;;;;;;;;5095455;28;20221;-89
2023/08/13 14:26:34;;;;;;;1.77;1.50;;;;;;;;;;5095306;28;20701;-89
2023/08/13 14:29:03;;;;;;;2.80;1.65;;;;;;;;;;5095573;28;20605;-88
2023/08/13 14:31:30;;;;;;;1.65;1.55;;;;;;;;;;5095188;28;20657;-89
2023/08/13 14:33:57;;;;;;;1.48;1.20;;;;;;;;;;5095646;28;20251;-87
2023/08/13 14:36:24;;;;;;;1.35;1.25;;;;;;;;;;5094721;28;20713;-89
2023/08/13 14:38:52;;;;;;;3.65;1.42;;;;;;;;;;5095685;28;20204;-89
2023/08/13 14:41:19;;;;;;;2.33;1.50;;;;;;;;;;5095273;28;20315;-89
2023/08/13 14:43:48;;;;;;;2.83;1.30;;;;;;;;;;5098409;28;20224;-87
2023/08/13 14:46:19;;;;;;;2.78;1.60;;;;;;;;;;5100882;28;20254;-88
2023/08/13 14:48:46;;;;;;;1.77;1.40;;;;;;;;;;5105487;28;20216;-89
2023/08/13 14:51:13;;;;;;;1.30;1.20;;;;;;;;;;5102405;28;20706;-87